Time;durP1;ratioP1;P1;durP2;ratioP2;P2;SDS_P1;SDS_P2;PMS_P1;PMS_P2;Temp;Humidity;BMP_temperature;BMP_pressure;BME280_temperature;BME280_humidity;BME280_pressure;Samples;Min_cycle;Max_cycle;Signal;HPM_P1;HPM_P2
2020/12/07 00:02:22;;;;;;;5.35;2.55;;;;;;;;;;5068579;28;20012;-73
2020/12/07 00:04:49;;;;;;;4.75;2.80;;;;;;;;;;5069008;28;20017;-72
2020/12/07 00:07:15;;;;;;;5.80;2.40;;;;;;;;;;5066998;28;20013;-72
2020/12/07 00:09:41;;;;;;;4.78;2.63;;;;;;;;;;5080614;28;20070;-72
2020/12/07 00:12:07;;;;;;;3.53;2.42;;;;;;;;;;5105996;28;20472;-73
2020/12/07 00:14:33;;;;;;;2.83;2.33;;;;;;;;;;5108102;28;20051;-72
2020/12/07 00:17:00;;;;;;;3.97;2.35;;;;;;;;;;5108962;28;20028;-73
2020/12/07 00:19:26;;;;;;;7.07;2.70;;;;;;;;;;5090642;28;20530;-74
2020/12/07 00:21:52;;;;;;;2.72;1.92;;;;;;;;;;5097527;28;20060;-71
2020/12/07 00:24:18;;;;;;;4.35;2.40;;;;;;;;;;5087872;28;20529;-71
2020/12/07 00:26:44;;;;;;;2.70;2.00;;;;;;;;;;5082857;28;20434;-73
2020/12/07 00:29:11;;;;;;;4.95;2.80;;;;;;;;;;5073505;28;20032;-73
2020/12/07 00:31:37;;;;;;;4.97;2.15;;;;;;;;;;5074014;28;20496;-72
2020/12/07 00:34:03;;;;;;;2.30;1.70;;;;;;;;;;5073262;28;20024;-73
2020/12/07 00:36:29;;;;;;;5.55;2.95;;;;;;;;;;5073876;28;20024;-73
2020/12/07 00:38:55;;;;;;;3.75;2.40;;;;;;;;;;5073935;28;20474;-73
2020/12/07 00:41:22;;;;;;;4.05;2.25;;;;;;;;;;5073233;28;20029;-73
2020/12/07 00:43:49;;;;;;;5.55;2.47;;;;;;;;;;5075465;28;20112;-73
2020/12/07 00:46:15;;;;;;;3.38;2.20;;;;;;;;;;5077965;28;20461;-72
2020/12/07 00:48:41;;;;;;;4.65;2.53;;;;;;;;;;5074739;28;20473;-71
2020/12/07 00:51:07;;;;;;;2.67;1.67;;;;;;;;;;5077804;28;20032;-71
2020/12/07 00:53:34;;;;;;;3.22;2.10;;;;;;;;;;5056145;28;20163;-72
2020/12/07 00:56:00;;;;;;;8.00;3.13;;;;;;;;;;5075487;28;20493;-71
2020/12/07 00:58:26;;;;;;;2.95;2.17;;;;;;;;;;5075430;28;20039;-71
2020/12/07 01:00:52;;;;;;;3.70;2.30;;;;;;;;;;5075048;28;20025;-73
2020/12/07 01:03:18;;;;;;;2.88;1.90;;;;;;;;;;5081713;28;20018;-72
2020/12/07 01:05:44;;;;;;;3.30;2.13;;;;;;;;;;5085905;28;20036;-70
2020/12/07 01:08:10;;;;;;;2.85;1.85;;;;;;;;;;5076566;28;20135;-72
2020/12/07 01:10:37;;;;;;;2.75;1.88;;;;;;;;;;5078821;28;20044;-71
2020/12/07 01:13:03;;;;;;;6.30;2.50;;;;;;;;;;5085444;28;20024;-71
2020/12/07 01:15:29;;;;;;;2.92;1.95;;;;;;;;;;5076050;28;20032;-72
2020/12/07 01:17:55;;;;;;;3.08;1.77;;;;;;;;;;5093828;28;20020;-71
2020/12/07 01:20:21;;;;;;;7.07;1.95;;;;;;;;;;5092262;28;20043;-70
2020/12/07 01:22:47;;;;;;;5.55;2.22;;;;;;;;;;5075876;28;20012;-71
2020/12/07 01:25:14;;;;;;;3.65;1.88;;;;;;;;;;5093805;28;20024;-71
2020/12/07 01:27:40;;;;;;;3.35;2.15;;;;;;;;;;5091505;28;20095;-69
2020/12/07 01:30:06;;;;;;;4.05;2.50;;;;;;;;;;5092274;28;20036;-73
2020/12/07 01:32:32;;;;;;;3.40;2.05;;;;;;;;;;5090750;28;20526;-72
2020/12/07 01:34:58;;;;;;;2.70;1.98;;;;;;;;;;5092064;28;20035;-75
2020/12/07 01:37:24;;;;;;;3.70;2.42;;;;;;;;;;5073580;28;20024;-71
2020/12/07 01:39:50;;;;;;;2.60;2.00;;;;;;;;;;5092478;28;20099;-73
2020/12/07 01:42:16;;;;;;;3.42;2.25;;;;;;;;;;5093938;28;20028;-72
2020/12/07 01:44:42;;;;;;;3.72;2.30;;;;;;;;;;5094105;28;20374;-70
2020/12/07 01:47:28;;;;;;;3.85;1.75;;;;;;;;;;5094156;28;20053;-70
2020/12/07 01:49:54;;;;;;;3.80;2.00;;;;;;;;;;5094344;28;20032;-71
2020/12/07 01:52:21;;;;;;;3.80;2.33;;;;;;;;;;5093858;28;20020;-72
2020/12/07 01:54:48;;;;;;;2.45;1.70;;;;;;;;;;5094044;28;20387;-72
2020/12/07 01:57:14;;;;;;;2.90;1.83;;;;;;;;;;5093949;28;20078;-72
2020/12/07 01:59:40;;;;;;;2.47;1.80;;;;;;;;;;5093703;28;20024;-71
2020/12/07 02:02:07;;;;;;;8.43;2.20;;;;;;;;;;5083797;28;20039;-71
2020/12/07 02:04:33;;;;;;;2.15;1.75;;;;;;;;;;5094029;28;20107;-71
2020/12/07 02:07:00;;;;;;;2.92;1.73;;;;;;;;;;5093340;28;20017;-71
2020/12/07 02:09:27;;;;;;;4.25;2.25;;;6.40;99.90;;;;;;5093611;28;20076;-71
2020/12/07 02:11:53;;;;;;;2.67;1.92;;;6.50;99.90;;;;;;5093946;28;20024;-72
2020/12/07 02:14:19;;;;;;;2.85;2.10;;;6.50;99.90;;;;;;5093667;28;20119;-72
2020/12/07 02:16:44;;;;;;;2.95;1.80;;;6.40;99.90;;;;;;5093746;28;20475;-72
2020/12/07 02:19:10;;;;;;;5.78;1.80;;;6.50;99.90;;;;;;5093664;28;20097;-71
2020/12/07 02:21:36;;;;;;;4.88;2.13;;;6.40;99.90;;;;;;5075033;28;20101;-72
2020/12/07 02:24:03;;;;;;;3.75;2.30;;;;;;;;;;5093383;28;20429;-71
2020/12/07 02:26:30;;;;;;;4.13;2.40;;;;;;;;;;5075749;28;20102;-71
2020/12/07 02:28:56;;;;;;;11.27;2.13;;;;;;;;;;5093383;28;20056;-72
2020/12/07 02:31:22;;;;;;;2.92;2.05;;;6.40;99.90;;;;;;5093737;28;20377;-71
2020/12/07 02:33:47;;;;;;;2.53;2.13;;;6.40;99.90;;;;;;5093330;28;20499;-72
2020/12/07 02:36:13;;;;;;;4.07;2.35;;;6.40;99.90;;;;;;5086683;28;20027;-71
2020/12/07 02:38:39;;;;;;;3.00;2.05;;;;;;;;;;5086383;28;20028;-72
2020/12/07 02:41:08;;;;;;;3.40;1.92;;;;;;;;;;5092603;28;20008;-71
2020/12/07 02:43:34;;;;;;;3.08;2.08;;;;;;;;;;5092425;28;20073;-71
2020/12/07 02:46:00;;;;;;;3.75;2.15;;;;;;;;;;5087853;28;20115;-71
2020/12/07 02:48:26;;;;;;;4.95;2.08;;;;;;;;;;5092974;28;20047;-73
2020/12/07 02:50:52;;;;;;;5.68;2.30;;;;;;;;;;5092860;28;20103;-71
2020/12/07 02:53:18;;;;;;;3.05;2.03;;;;;;;;;;5093417;28;20022;-72
2020/12/07 02:55:44;;;;;;;2.22;1.70;;;;;;;;;;5092758;28;20032;-71
2020/12/07 02:58:10;;;;;;;3.55;2.22;;;6.40;99.90;;;;;;5093694;28;20044;-71
2020/12/07 03:00:35;;;;;;;3.92;2.40;;;6.30;99.90;;;;;;5093577;28;20070;-72
2020/12/07 03:03:01;;;;;;;2.42;1.80;;;6.20;99.90;;;;;;5075959;28;20028;-70
2020/12/07 03:05:27;;;;;;;3.58;2.33;;;6.20;99.90;;;;;;5093476;28;20016;-71
2020/12/07 03:07:52;;;;;;;3.65;2.30;;;6.20;99.90;;;;;;5093217;28;20469;-71
2020/12/07 03:10:18;;;;;;;4.07;2.17;;;6.30;99.90;;;;;;5092948;28;20129;-70
2020/12/07 03:12:44;;;;;;;3.80;2.20;;;6.20;99.90;;;;;;5092919;28;20483;-70
2020/12/07 03:15:10;;;;;;;3.30;2.20;;;6.20;99.90;;;;;;5092957;28;20115;-71
2020/12/07 03:17:35;;;;;;;3.78;2.20;;;6.20;99.90;;;;;;5092798;28;20020;-71
2020/12/07 03:20:01;;;;;;;4.47;2.65;;;6.20;99.90;;;;;;5092694;28;20036;-70
2020/12/07 03:22:27;;;;;;;4.35;1.83;;;6.20;99.90;;;;;;5074525;28;20421;-70
2020/12/07 03:24:52;;;;;;;3.42;2.67;;;6.20;99.90;;;;;;5074569;28;20020;-71
2020/12/07 03:27:18;;;;;;;2.75;1.95;;;6.20;99.90;;;;;;5093180;28;20409;-70
2020/12/07 03:29:44;;;;;;;3.17;2.00;;;6.20;99.90;;;;;;5092905;28;20081;-70
2020/12/07 03:32:10;;;;;;;3.45;2.20;;;6.20;99.90;;;;;;5092316;28;20032;-70
2020/12/07 03:34:35;;;;;;;2.90;2.13;;;6.20;99.90;;;;;;5092761;28;20120;-70
2020/12/07 03:37:01;;;;;;;4.25;1.90;;;6.30;99.90;;;;;;5092692;28;20078;-70
2020/12/07 03:39:27;;;;;;;4.63;2.00;;;6.30;99.90;;;;;;5092353;28;20028;-71
2020/12/07 03:41:52;;;;;;;5.82;2.90;;;6.30;99.90;;;;;;5092903;28;20029;-71
2020/12/07 03:44:18;;;;;;;6.05;2.88;;;6.30;99.90;;;;;;5087841;28;20024;-72
2020/12/07 03:46:44;;;;;;;2.92;1.88;;;6.30;99.90;;;;;;5092773;28;20475;-70
2020/12/07 03:49:10;;;;;;;4.07;2.70;;;6.30;99.90;;;;;;5092257;28;20044;-71
2020/12/07 03:51:36;;;;;;;2.92;2.08;;;6.40;99.90;;;;;;5091985;28;20115;-72
2020/12/07 03:54:02;;;;;;;6.10;2.85;;;6.40;99.90;;;;;;5092360;28;20028;-71
2020/12/07 03:56:27;;;;;;;4.57;2.78;;;6.40;99.90;;;;;;5094206;28;20426;-71
2020/12/07 03:58:53;;;;;;;3.83;2.33;;;6.40;99.90;;;;;;5095906;28;20028;-71
2020/12/07 04:01:19;;;;;;;4.95;3.00;;;6.40;99.90;;;;;;5096273;28;20016;-71
2020/12/07 04:03:51;;;;;;;2.20;1.73;;;6.30;99.90;;;;;;5096207;28;20031;-71
2020/12/07 04:06:27;;;;;;;2.65;1.88;;;6.40;99.90;;;;;;5078062;28;20031;-71
2020/12/07 04:08:53;;;;;;;3.58;2.55;;;6.40;99.90;;;;;;5096094;28;20043;-71
2020/12/07 04:11:18;;;;;;;4.35;2.00;;;6.40;99.90;;;;;;5096344;28;20024;-71
2020/12/07 04:13:44;;;;;;;4.43;2.22;;;6.40;99.90;;;;;;5095603;28;20475;-71
2020/12/07 04:16:10;;;;;;;5.00;2.88;;;6.40;99.90;;;;;;5095970;28;20036;-70
2020/12/07 04:18:36;;;;;;;3.97;2.53;;;6.40;99.90;;;;;;5095714;28;20027;-70
2020/12/07 04:21:02;;;;;;;3.53;2.22;;;6.40;99.90;;;;;;5096076;28;20110;-70
2020/12/07 04:23:29;;;;;;;6.40;2.22;;;6.40;99.90;;;;;;5095593;28;20031;-70
2020/12/07 04:25:55;;;;;;;3.30;2.40;;;6.30;99.90;;;;;;5095828;28;20085;-70
2020/12/07 04:28:20;;;;;;;5.35;3.22;;;6.30;99.90;;;;;;5096155;28;20028;-71
2020/12/07 04:30:46;;;;;;;3.85;2.30;;;6.30;99.90;;;;;;5095559;28;20032;-69
2020/12/07 04:33:12;;;;;;;3.45;1.95;;;6.20;99.90;;;;;;5077371;28;20055;-69
2020/12/07 04:35:38;;;;;;;2.50;2.05;;;6.20;99.90;;;;;;5095687;28;20028;-70
2020/12/07 04:38:03;;;;;;;6.70;3.03;;;6.20;99.90;;;;;;5095664;28;20062;-70
2020/12/07 04:40:30;;;;;;;5.53;2.78;;;6.10;99.90;;;;;;5095097;28;20084;-70
2020/12/07 04:42:56;;;;;;;4.63;2.58;;;6.10;99.90;;;;;;5095602;28;20055;-71
2020/12/07 04:45:23;;;;;;;4.90;3.00;;;6.10;99.90;;;;;;5077515;28;20484;-71
2020/12/07 04:47:52;;;;;;;5.75;2.88;;;6.10;99.90;;;;;;5095330;28;20028;-71
2020/12/07 04:50:20;;;;;;;3.53;2.35;;;6.00;99.90;;;;;;5095345;28;20112;-71
2020/12/07 04:52:49;;;;;;;2.83;2.03;;;6.10;99.90;;;;;;5095433;28;20381;-71
2020/12/07 04:55:15;;;;;;;4.80;2.35;;;6.10;99.90;;;;;;5077007;28;20021;-71
2020/12/07 04:57:43;;;;;;;4.22;2.75;;;6.10;99.90;;;;;;5095247;28;20028;-71
2020/12/07 05:00:08;;;;;;;3.72;2.88;;;6.10;99.90;;;;;;5094952;28;20476;-70
2020/12/07 05:02:38;;;;;;;3.28;2.22;;;6.10;99.90;;;;;;5094830;28;20024;-70
2020/12/07 05:05:06;;;;;;;6.13;2.90;;;6.20;99.90;;;;;;5089734;28;20046;-71
2020/12/07 05:07:33;;;;;;;3.97;2.35;;;6.20;99.90;;;;;;5095157;28;20496;-71
2020/12/07 05:10:06;;;;;;;4.18;2.25;;;6.10;99.90;;;;;;5094314;28;20127;-71
2020/12/07 05:12:38;;;;;;;3.35;2.40;;;6.10;99.90;;;;;;5095261;28;20419;-70
2020/12/07 05:15:13;;;;;;;5.25;2.60;;;6.10;99.90;;;;;;5094698;28;20381;-70
2020/12/07 05:17:39;;;;;;;4.75;2.97;;;6.20;99.90;;;;;;5095042;28;20035;-69
2020/12/07 05:20:06;;;;;;;4.75;2.40;;;6.20;99.90;;;;;;5095020;28;20043;-70
2020/12/07 05:22:34;;;;;;;3.60;2.28;;;6.20;99.90;;;;;;5094460;28;20073;-70
2020/12/07 05:25:04;;;;;;;4.85;2.72;;;6.10;99.90;;;;;;5094964;28;20032;-71
2020/12/07 05:27:31;;;;;;;8.45;2.63;;;6.10;99.90;;;;;;5094616;28;20016;-72
2020/12/07 05:30:08;;;;;;;6.28;3.75;;;6.10;99.90;;;;;;5094385;28;20423;-71
2020/12/07 05:32:39;;;;;;;4.95;3.33;;;6.10;99.90;;;;;;5076455;28;20027;-71
2020/12/07 05:35:07;;;;;;;5.63;3.08;;;6.10;99.90;;;;;;5094879;28;20414;-71
2020/12/07 05:37:37;;;;;;;3.97;2.58;;;6.10;99.90;;;;;;5089585;28;20105;-70
2020/12/07 05:40:05;;;;;;;3.05;2.28;;;6.10;99.90;;;;;;5092546;28;20551;-70
2020/12/07 05:42:31;;;;;;;4.63;2.28;;;6.20;99.90;;;;;;5093921;28;20073;-69
2020/12/07 05:44:58;;;;;;;4.25;2.45;;;6.20;99.90;;;;;;5094090;28;20408;-68
2020/12/07 05:47:26;;;;;;;3.33;2.35;;;6.20;99.90;;;;;;5094389;28;20024;-68
2020/12/07 05:49:54;;;;;;;3.10;2.17;;;6.20;99.90;;;;;;5093671;28;20063;-69
2020/12/07 05:52:53;;;;;;;6.95;1.85;;;6.20;99.90;;;;;;5094426;28;20016;-69
2020/12/07 05:55:21;;;;;;;3.75;2.33;;;6.20;99.90;;;;;;5093674;28;20040;-68
2020/12/07 05:57:56;;;;;;;2.75;2.08;;;6.30;99.90;;;;;;5091908;28;20020;-68
2020/12/07 06:00:23;;;;;;;4.32;2.97;;;6.30;99.90;;;;;;5093462;28;20093;-68
2020/12/07 06:02:53;;;;;;;6.47;3.75;;;6.30;99.90;;;;;;5093780;28;20073;-68
2020/12/07 06:05:23;;;;;;;7.45;2.72;;;6.30;99.90;;;;;;5093824;28;20027;-69
2020/12/07 06:07:56;;;;;;;5.10;2.55;;;6.30;99.90;;;;;;5093684;28;20047;-68
2020/12/07 06:10:27;;;;;;;4.32;2.65;;;6.30;99.90;;;;;;5093841;28;20070;-68
2020/12/07 06:12:55;;;;;;;6.45;2.83;;;6.30;99.90;;;;;;5094126;28;20099;-69
2020/12/07 06:15:21;;;;;;;4.80;2.75;;;6.30;99.90;;;;;;5092302;28;20255;-68
2020/12/07 06:17:49;;;;;;;4.93;2.83;;;6.30;99.90;;;;;;5075693;28;20020;-68
2020/12/07 06:20:36;;;;;;;4.72;2.83;;;6.30;99.90;;;;;;5093188;28;20028;-68
2020/12/07 06:23:03;;;;;;;3.65;2.35;;;6.40;99.90;;;;;;5093429;28;20106;-68
2020/12/07 06:25:30;;;;;;;5.90;2.80;;;6.30;99.90;;;;;;5091748;28;20017;-69
2020/12/07 06:28:03;;;;;;;4.95;2.13;;;6.30;99.90;;;;;;5086229;28;20034;-67
2020/12/07 06:30:36;;;;;;;2.95;2.00;;;6.30;99.90;;;;;;5090473;28;20028;-68
2020/12/07 06:33:09;;;;;;;4.13;2.42;;;6.30;99.90;;;;;;5093151;28;20071;-70
2020/12/07 06:35:45;;;;;;;6.80;3.55;;;6.40;99.90;;;;;;5093370;28;20024;-69
2020/12/07 06:38:11;;;;;;;3.88;2.60;;;6.40;99.90;;;;;;5093719;28;20062;-70
2020/12/07 06:40:38;;;;;;;4.95;2.58;;;6.40;99.90;;;;;;5092390;28;20059;-69
2020/12/07 06:43:20;;;;;;;4.68;2.50;;;6.40;99.90;;;;;;5093161;28;20031;-68
2020/12/07 06:45:45;;;;;;;5.00;3.05;;;6.40;99.90;;;;;;5092498;28;20389;-69
2020/12/07 06:48:16;;;;;;;3.28;1.88;;;6.40;99.90;;;;;;5092834;28;20028;-69
2020/12/07 06:50:44;;;;;;;7.78;3.45;;;6.40;99.90;;;;;;5092720;28;20047;-68
2020/12/07 06:55:53;;;;;;;4.05;2.05;;;6.50;99.90;;;;;;5093079;28;20107;-69
2020/12/07 06:58:37;;;;;;;5.10;3.10;;;6.50;99.90;;;;;;5093372;28;20031;-70
2020/12/07 07:01:21;;;;;;;5.03;3.03;;;6.50;99.90;;;;;;5074544;28;20080;-69
2020/12/07 07:03:55;;;;;;;4.57;2.80;;;6.50;99.90;;;;;;5092733;28;20090;-70
2020/12/07 07:06:22;;;;;;;6.40;4.20;;;6.60;99.90;;;;;;5092689;28;20026;-69
2020/12/07 07:08:49;;;;;;;7.53;3.03;;;6.60;99.90;;;;;;5092526;28;20046;-70
2020/12/07 07:11:16;;;;;;;6.05;3.65;;;6.50;99.90;;;;;;5074703;28;20028;-69
2020/12/07 07:13:51;;;;;;;2.85;2.28;;;6.50;99.90;;;;;;5092671;28;20526;-70
2020/12/07 07:16:18;;;;;;;4.75;2.85;;;6.50;99.90;;;;;;5092798;28;20030;-70
2020/12/07 07:18:44;;;;;;;5.68;3.00;;;6.50;99.90;;;;;;5092754;28;20020;-70
2020/12/07 07:21:10;;;;;;;3.00;1.88;;;6.50;99.90;;;;;;5092240;28;20554;-69
2020/12/07 07:23:41;;;;;;;7.47;3.75;;;6.60;99.90;;;;;;5092564;28;20157;-69
2020/12/07 07:26:25;;;;;;;3.88;2.63;;;6.50;99.90;;;;;;5092686;28;20362;-69
2020/12/07 07:28:52;;;;;;;5.97;2.83;;;6.60;99.90;;;;;;5092236;28;20384;-69
2020/12/07 07:31:18;;;;;;;8.95;4.05;;;6.60;99.90;;;;;;5094019;28;20040;-70
2020/12/07 07:33:45;;;;;;;3.03;1.80;;;6.50;99.90;;;;;;5096570;28;20024;-69
2020/12/07 07:36:22;;;;;;;4.45;2.88;;;6.60;99.90;;;;;;5096619;28;20028;-69
2020/12/07 07:38:55;;;;;;;9.32;3.92;;;6.60;99.90;;;;;;5096746;28;20472;-69
2020/12/07 07:41:25;;;;;;;5.93;3.45;;;6.60;99.90;;;;;;5083399;28;20027;-69
2020/12/07 07:43:51;;;;;;;8.70;3.92;;;6.60;99.90;;;;;;5095729;28;20031;-69
2020/12/07 07:46:19;;;;;;;9.00;4.57;;;6.60;99.90;;;;;;5089464;28;20495;-70
2020/12/07 07:49:07;;;;;;;4.35;2.63;;;6.70;99.90;;;;;;5091325;28;20444;-69
2020/12/07 08:16:26;;;;;;;10.07;4.05;;;6.70;99.90;;;;;;5087816;28;19969;-70
2020/12/07 08:18:57;;;;;;;8.82;4.07;;;6.80;99.90;;;;;;5083224;28;20115;-69
2020/12/07 08:21:33;;;;;;;6.90;3.78;;;6.80;99.90;;;;;;5077954;28;20029;-68
2020/12/07 08:24:06;;;;;;;11.30;4.70;;;6.90;99.90;;;;;;5075686;28;20103;-68
2020/12/07 08:26:40;;;;;;;14.23;5.07;;;6.90;99.90;;;;;;5082812;28;20052;-69
2020/12/07 08:29:06;;;;;;;5.07;2.75;;;6.90;99.90;;;;;;5079945;28;20457;-69
2020/12/07 08:31:36;;;;;;;9.18;4.38;;;7.00;99.90;;;;;;5080404;28;20036;-68
2020/12/07 08:34:13;;;;;;;11.57;5.47;;;6.90;99.90;;;;;;5078155;28;20056;-68
2020/12/07 08:36:42;;;;;;;6.32;3.42;;;7.10;99.90;;;;;;5075464;28;20416;-69
2020/12/07 08:39:08;;;;;;;7.80;3.45;;;7.10;99.90;;;;;;5075485;28;20055;-68
2020/12/07 08:41:35;;;;;;;6.28;3.40;;;7.00;99.90;;;;;;5074194;28;20036;-70
2020/12/07 08:44:04;;;;;;;7.22;3.72;;;7.10;99.90;;;;;;5079078;28;20025;-71
2020/12/07 08:46:32;;;;;;;5.97;2.80;;;7.10;99.90;;;;;;5081040;28;20020;-70
2020/12/07 08:49:00;;;;;;;4.30;1.75;;;7.10;99.90;;;;;;5075516;28;20028;-72
2020/12/07 08:51:28;;;;;;;5.00;3.08;;;7.10;99.90;;;;;;5079062;28;20048;-70
2020/12/07 08:53:55;;;;;;;7.13;3.38;;;7.10;99.90;;;;;;5075648;28;20020;-70
2020/12/07 08:56:21;;;;;;;3.47;2.25;;;7.00;99.90;;;;;;5075897;28;20029;-69
2020/12/07 08:58:46;;;;;;;9.07;3.22;;;7.10;99.90;;;;;;5088129;28;20047;-70
2020/12/07 09:01:13;;;;;;;6.70;2.67;;;7.00;99.90;;;;;;5084539;28;20024;-68
2020/12/07 09:03:44;;;;;;;5.20;2.88;;;7.00;99.90;;;;;;5083753;28;20020;-70
2020/12/07 09:06:12;;;;;;;8.68;3.42;;;7.00;99.90;;;;;;5077754;28;20566;-69
2020/12/07 09:08:38;;;;;;;5.55;2.00;;;7.10;99.90;;;;;;5074778;28;20070;-69
2020/12/07 09:11:09;;;;;;;3.13;2.28;;;7.00;99.90;;;;;;5061019;28;20036;-71
2020/12/07 09:13:35;;;;;;;7.63;2.83;;;7.10;99.90;;;;;;5076737;28;20016;-69
2020/12/07 09:16:02;;;;;;;3.40;1.80;;;7.10;99.90;;;;;;5082204;28;20034;-69
2020/12/07 09:18:28;;;;;;;3.67;1.95;;;7.00;99.90;;;;;;5080520;28;20427;-69
2020/12/07 09:20:54;;;;;;;2.42;1.60;;;7.00;99.90;;;;;;5088472;28;20024;-70
2020/12/07 09:23:20;;;;;;;5.65;2.20;;;7.00;99.90;;;;;;5094699;28;20032;-70
2020/12/07 09:25:47;;;;;;;4.82;2.30;;;7.20;99.90;;;;;;5094735;28;20039;-69
2020/12/07 09:28:13;;;;;;;2.92;1.73;;;7.20;99.90;;;;;;5094525;28;20526;-70
2020/12/07 09:30:41;;;;;;;4.60;2.50;;;7.30;99.90;;;;;;5094254;28;20032;-69
2020/12/07 09:33:07;;;;;;;4.70;2.63;;;7.30;99.90;;;;;;5087840;28;20374;-69
2020/12/07 09:35:32;;;;;;;3.28;1.85;;;7.40;99.90;;;;;;5093479;28;20081;-70
2020/12/07 09:38:00;;;;;;;8.77;2.70;;;7.40;99.90;;;;;;5094520;28;20039;-71
2020/12/07 09:40:26;;;;;;;10.98;4.45;;;7.30;99.90;;;;;;5094035;28;20419;-68
2020/12/07 09:42:52;;;;;;;1.42;1.17;;;7.20;99.90;;;;;;5093198;28;20036;-68
2020/12/07 09:45:17;;;;;;;2.70;2.03;;;7.20;99.90;;;;;;5094218;28;20047;-68
2020/12/07 09:47:43;;;;;;;3.33;2.42;;;7.10;99.90;;;;;;5092004;28;20062;-69
2020/12/07 09:50:09;;;;;;;3.53;2.22;;;7.20;99.90;;;;;;5092564;28;20056;-69
2020/12/07 09:52:38;;;;;;;3.83;2.25;;;7.20;99.90;;;;;;5093932;28;20418;-70
2020/12/07 09:55:06;;;;;;;2.85;2.03;;;7.20;99.90;;;;;;5092874;28;20094;-68
2020/12/07 09:57:33;;;;;;;6.00;2.90;;;7.20;99.90;;;;;;5093792;28;20023;-68
2020/12/07 09:59:59;;;;;;;4.47;2.30;;;7.20;99.90;;;;;;5090122;28;20036;-69
2020/12/07 10:02:25;;;;;;;4.78;2.60;;;7.30;99.90;;;;;;5093177;28;20064;-68
2020/12/07 10:04:51;;;;;;;5.18;2.40;;;7.30;99.90;;;;;;5075059;28;20097;-70
2020/12/07 10:07:17;;;;;;;6.00;2.38;;;7.30;99.90;;;;;;5093867;28;20457;-69
2020/12/07 10:09:42;;;;;;;3.45;2.03;;;7.20;99.90;;;;;;5093018;28;20469;-69
2020/12/07 10:12:08;;;;;;;5.82;2.30;;;7.20;99.90;;;;;;5093913;28;20408;-68
2020/12/07 10:14:34;;;;;;;6.88;3.53;;;7.20;99.90;;;;;;5093971;28;20031;-68
2020/12/07 10:17:00;;;;;;;7.32;2.40;;;7.20;99.90;;;;;;5093345;28;20058;-69
2020/12/07 10:19:26;;;;;;;2.80;2.00;;;7.10;99.90;;;;;;5093518;28;20100;-70
2020/12/07 10:21:53;;;;;;;3.70;1.55;;;7.10;99.90;;;;;;5093581;28;20107;-68
2020/12/07 10:24:20;;;;;;;3.63;2.15;;;7.20;99.90;;;;;;5093159;28;20016;-69
2020/12/07 10:26:46;;;;;;;4.97;2.47;;;7.20;99.90;;;;;;5093739;28;20024;-69
2020/12/07 10:29:12;;;;;;;2.65;1.67;;;7.20;99.90;;;;;;5088512;28;20024;-69
2020/12/07 10:31:37;;;;;;;4.25;2.33;;;7.20;99.90;;;;;;5084047;28;20028;-69
2020/12/07 10:34:03;;;;;;;3.90;2.30;;;7.20;99.90;;;;;;5093363;28;20020;-68
2020/12/07 10:36:29;;;;;;;6.85;3.63;;;7.20;99.90;;;;;;5093142;28;20028;-69
2020/12/07 10:38:55;;;;;;;5.63;2.80;;;7.20;99.90;;;;;;5092596;28;20366;-69
2020/12/07 10:41:27;;;;;;;2.72;1.70;;;7.20;99.90;;;;;;5092917;28;20130;-68
2020/12/07 10:43:53;;;;;;;2.25;1.70;;;7.30;99.90;;;;;;5092813;28;20089;-68
2020/12/07 10:46:19;;;;;;;4.05;1.98;;;7.20;99.90;;;;;;5092844;28;20031;-66
2020/12/07 10:48:44;;;;;;;4.53;2.40;;;7.20;99.90;;;;;;5093154;28;20024;-69
2020/12/07 10:51:14;;;;;;;7.93;2.42;;;7.10;99.90;;;;;;5092595;28;20032;-68
2020/12/07 10:53:40;;;;;;;5.80;3.13;;;7.10;99.90;;;;;;5091896;28;20098;-70
2020/12/07 10:56:07;;;;;;;3.38;2.30;;;7.10;99.90;;;;;;5065465;28;20039;-69
2020/12/07 10:58:34;;;;;;;6.07;3.35;;;7.10;99.90;;;;;;5092383;28;20024;-68
2020/12/07 11:00:59;;;;;;;2.50;1.90;;;7.10;99.90;;;;;;5092560;28;20031;-68
2020/12/07 11:03:25;;;;;;;2.50;1.70;;;7.00;99.90;;;;;;5092301;28;20024;-68
2020/12/07 11:05:51;;;;;;;4.85;2.47;;;7.00;99.90;;;;;;5092128;28;20020;-69
2020/12/07 11:08:27;;;;;;;3.78;2.15;;;7.00;99.90;;;;;;5089948;28;20024;-72
2020/12/07 11:10:54;;;;;;;8.48;3.67;;;6.80;99.90;;;;;;5091920;28;20386;-68
2020/12/07 11:13:38;;;;;;;8.95;1.98;;;7.00;99.90;;;;;;5073524;28;20052;-71
2020/12/07 11:16:05;;;;;;;4.78;2.05;;;7.00;99.90;;;;;;5088924;28;20051;-69
2020/12/07 11:18:33;;;;;;;4.93;2.53;;;7.00;99.90;;;;;;5091930;28;20069;-68
2020/12/07 11:20:59;;;;;;;4.30;1.70;;;7.00;99.90;;;;;;5074067;28;20411;-68
2020/12/07 11:23:25;;;;;;;5.18;3.35;;;6.90;99.90;;;;;;5091705;28;20024;-69
2020/12/07 11:25:51;;;;;;;9.70;3.67;;;7.00;99.90;;;;;;5091654;28;20024;-68
2020/12/07 11:28:17;;;;;;;6.07;2.75;;;7.00;99.90;;;;;;5073917;28;20024;-68
2020/12/07 11:30:42;;;;;;;11.60;4.25;;;7.00;99.90;;;;;;5078422;28;20108;-68
2020/12/07 11:33:08;;;;;;;7.10;3.58;;;6.90;99.90;;;;;;5091046;28;20036;-69
2020/12/07 11:35:34;;;;;;;10.45;2.47;;;6.90;99.90;;;;;;5092071;28;20063;-71
2020/12/07 11:38:09;;;;;;;4.00;2.58;;;6.80;99.90;;;;;;5091680;28;20081;-69
2020/12/07 11:40:51;;;;;;;8.95;2.90;;;6.70;99.90;;;;;;5091954;28;20457;-70
2020/12/07 11:43:22;;;;;;;5.57;3.17;;;6.50;99.90;;;;;;5080909;28;20025;-69
2020/12/07 11:45:47;;;;;;;11.80;4.78;;;6.50;99.90;;;;;;5091703;28;20028;-70
2020/12/07 11:48:15;;;;;;;7.88;3.65;;;6.50;99.90;;;;;;5092048;28;20082;-69
2020/12/07 11:50:41;;;;;;;12.27;5.47;;;6.40;99.90;;;;;;5082523;28;20128;-67
2020/12/07 11:53:07;;;;;;;11.25;4.85;;;6.30;99.90;;;;;;5073034;28;20067;-68
2020/12/07 11:55:33;;;;;;;10.90;5.38;;;6.40;99.90;;;;;;5071877;28;20438;-69
2020/12/07 11:57:59;;;;;;;11.82;5.22;;;6.30;99.90;;;;;;5080559;28;20465;-68
2020/12/07 12:00:24;;;;;;;10.75;5.70;;;6.30;99.90;;;;;;5079076;28;20481;-68
2020/12/07 12:02:50;;;;;;;13.70;6.13;;;6.30;99.90;;;;;;5079245;28;20036;-69
2020/12/07 12:05:17;;;;;;;8.65;4.80;;;6.30;99.90;;;;;;5055145;28;20020;-68
2020/12/07 12:07:43;;;;;;;8.45;5.15;;;6.30;99.90;;;;;;5072334;28;20023;-67
2020/12/07 12:10:09;;;;;;;8.70;3.58;;;6.30;99.90;;;;;;5073447;28;20123;-68
2020/12/07 12:12:36;;;;;;;7.70;3.72;;;6.30;99.90;;;;;;5072657;28;20028;-70
2020/12/07 12:15:02;;;;;;;10.15;5.20;;;6.30;99.90;;;;;;5053637;28;20032;-68
2020/12/07 12:17:28;;;;;;;6.45;4.18;;;6.30;99.90;;;;;;5072865;28;20081;-67
2020/12/07 12:19:54;;;;;;;8.00;4.38;;;6.40;99.90;;;;;;5076047;28;20119;-67
2020/12/07 12:22:19;;;;;;;5.80;3.53;;;6.40;99.90;;;;;;5076274;28;20029;-68
2020/12/07 12:24:45;;;;;;;5.03;2.58;;;6.50;99.90;;;;;;5075132;28;20505;-68
2020/12/07 12:27:11;;;;;;;6.38;3.03;;;6.40;99.90;;;;;;5075992;28;20020;-68
2020/12/07 12:29:37;;;;;;;6.32;3.10;;;6.30;99.90;;;;;;5073662;28;20044;-67
2020/12/07 12:32:02;;;;;;;3.05;1.88;;;6.30;99.90;;;;;;5081787;28;20484;-73
2020/12/07 12:34:28;;;;;;;8.85;4.03;;;6.20;99.90;;;;;;5080373;28;20093;-67
2020/12/07 12:36:54;;;;;;;5.70;2.67;;;6.20;99.90;;;;;;5080820;28;20051;-73
2020/12/07 12:39:21;;;;;;;7.07;3.45;;;6.10;99.90;;;;;;5078972;28;20024;-67
2020/12/07 12:41:47;;;;;;;10.60;5.22;;;6.10;99.90;;;;;;5073760;28;20020;-68
2020/12/07 12:44:13;;;;;;;11.90;6.00;;;6.00;99.90;;;;;;5075837;28;20351;-69
2020/12/07 12:46:39;;;;;;;8.52;4.32;;;6.00;99.90;;;;;;5072899;28;20165;-69
2020/12/07 12:49:05;;;;;;;14.60;6.43;;;5.90;99.90;;;;;;5094113;28;20045;-68
2020/12/07 12:51:31;;;;;;;14.65;6.55;;;5.80;99.90;;;;;;5094786;28;20032;-69
2020/12/07 12:53:58;;;;;;;10.63;4.63;;;5.80;99.90;;;;;;5094843;28;20031;-70
2020/12/07 12:56:24;;;;;;;18.75;8.52;;;5.50;99.90;;;;;;5093420;28;20032;-70
2020/12/07 12:58:49;;;;;;;13.75;6.20;;;5.80;99.90;;;;;;5094242;28;20078;-69
2020/12/07 13:01:15;;;;;;;8.35;4.10;;;5.80;99.90;;;;;;5093912;28;20024;-70
2020/12/07 13:03:44;;;;;;;12.05;5.82;;;;;;;;;;5093824;28;20024;-68
2020/12/07 13:06:12;;;;;;;8.88;3.70;;;;;;;;;;5091275;28;20042;-68
2020/12/07 13:08:38;;;;;;;11.38;4.72;;;;;;;;;;5085194;28;20028;-69
2020/12/07 13:11:04;;;;;;;12.25;5.72;;;5.40;99.90;;;;;;5087278;28;20034;-68
2020/12/07 13:13:36;;;;;;;18.23;5.40;;;5.30;99.90;;;;;;5094295;28;20020;-69
2020/12/07 13:16:10;;;;;;;8.40;4.82;;;5.30;99.90;;;;;;5076005;28;20028;-69
2020/12/07 13:18:47;;;;;;;11.43;5.55;;;5.30;99.90;;;;;;5093696;28;20089;-69
2020/12/07 13:21:23;;;;;;;7.82;4.22;;;5.30;99.90;;;;;;5083486;28;20032;-68
2020/12/07 13:24:01;;;;;;;5.93;3.60;;;5.30;99.90;;;;;;5086908;28;20111;-68
2020/12/07 13:28:55;;;;;;;6.82;3.92;;;5.30;99.90;;;;;;5076142;28;20554;-68
2020/12/07 13:31:21;;;;;;;6.43;4.15;;;5.10;99.90;;;;;;5074030;28;20108;-68
2020/12/07 13:33:47;;;;;;;5.20;3.55;;;5.20;99.90;;;;;;5088089;28;20176;-68
2020/12/07 13:36:17;;;;;;;7.72;4.40;;;5.20;99.90;;;;;;5094025;28;20028;-68
2020/12/07 13:38:44;;;;;;;7.30;4.03;;;5.20;99.90;;;;;;5093837;28;20470;-69
2020/12/07 13:41:11;;;;;;;8.85;4.15;;;5.20;99.90;;;;;;5089740;28;20040;-71
2020/12/07 13:43:38;;;;;;;10.52;5.03;;;5.20;99.90;;;;;;5075118;28;20063;-71
2020/12/07 13:46:04;;;;;;;8.30;4.53;;;5.20;99.90;;;;;;5075795;28;20024;-73
2020/12/07 13:48:29;;;;;;;9.23;4.78;;;5.10;99.90;;;;;;5073439;28;20382;-71